Portada
METAR-TAF:

METAR-TAF

Aeropuertos :

Posadas, Argentina

Aeropuerto Internacional de Posadas Libertador General José de San Martín

latitud: 27-22S, longitud: 055-58W, altitud: 131 m

Observación

El informe se hizo hace 1 hora y 1 minutos, a las 14:00 UTC
Viento 12 kt del noreste
Temperatura 23°C
Humedad 53%
Presión 1022 hPa
Visibilidad 10 km o más
sin nubes por debajo de 1500 m y sin presencia de cumulonimbus.

METAR: SARP 281400Z 05012KT CAVOK 23/13 Q1022

Hora: 12:01 (15:01 UTC)

Pronóstico

El informe se hizo hace 4 horas y 1 minutos, a las 11:00 UTC
Pronóstico válido del 28 a las 12 UTC al 29 a las 12 UTC
Viento 10 kt del este-noreste
Visibilidad 10 km o más
sin nubes por debajo de 1500 m y sin presencia de cumulonimbus.

TAF: SARP 281100Z 2812/2912 07010KT CAVOK TX32/2818Z TN17/2909Z

Observaciones y pronósticos meteorológicos de más de 4000 aeropuertos (mensajes METAR y TAF).

Los puntos amarillos y rojos representan las estaciones disponibles.

Ponga el ratón en el punto deseado para ver el nombre de la estación.

Haga clic para ver las observaciones y los pronósticos meteorológicos.

Para cambiar el mapa : haga clic en los botones verdes con una cruz de color negro para hacer un zoom, en el botón verde con un guión para alejar o en las flechas verdes para mapas adyacentes.


METAR-TAF: